Time;durP1;ratioP1;P1;durP2;ratioP2;P2;SDS_P1;SDS_P2;PMS_P1;PMS_P2;Temp;Humidity;BMP_temperature;BMP_pressure;BME280_temperature;BME280_humidity;BME280_pressure;Samples;Min_cycle;Max_cycle;Signal;HPM_P1;HPM_P2
2022/07/22 00:01:25;;;;;;;;;22.25;21.25;;;;;24.13;54.02;101217.22;5018817;28;46107;-81
2022/07/22 00:03:50;;;;;;;;;24.25;21.75;;;;;24.13;54.24;101219.91;5014989;28;45710;-80
2022/07/22 00:06:16;;;;;;;;;21.00;21.00;;;;;24.15;54.31;101225.09;5011464;28;45585;-82
2022/07/22 00:08:41;;;;;;;;;22.50;20.50;;;;;24.18;54.47;101230.94;5010015;28;47368;-80
2022/07/22 00:11:07;;;;;;;;;21.75;20.25;;;;;24.11;54.09;101218.44;5010792;28;45726;-80
2022/07/22 00:13:33;;;;;;;;;21.25;20.00;;;;;23.99;54.57;101211.84;5010932;28;45686;-80
2022/07/22 00:15:58;;;;;;;;;23.25;22.50;;;;;24.02;54.38;101219.53;5010875;28;45974;-77
2022/07/22 00:18:24;;;;;;;;;22.75;20.50;;;;;23.96;54.54;101229.13;5009981;28;45550;-82
2022/07/22 00:20:49;;;;;;;;;20.25;19.50;;;;;23.94;55.08;101231.16;5010291;28;46696;-80
2022/07/22 00:23:15;;;;;;;;;21.00;19.00;;;;;23.86;54.62;101217.00;5011109;28;45731;-81
2022/07/22 00:25:40;;;;;;;;;21.75;18.75;;;;;23.74;55.24;101200.53;5005411;28;45912;-79
2022/07/22 00:28:05;;;;;;;;;21.50;19.25;;;;;23.80;55.18;101227.44;5009046;28;46816;-82
2022/07/22 00:30:31;;;;;;;;;18.75;18.50;;;;;23.74;55.02;101220.09;4992543;28;47929;-81
2022/07/22 00:32:56;;;;;;;;;20.25;18.25;;;;;23.67;55.15;101219.16;5010521;28;45758;-81
2022/07/22 00:35:22;;;;;;;;;20.25;19.25;;;;;23.65;55.24;101205.09;5009932;28;45824;-81
2022/07/22 00:37:47;;;;;;;;;22.00;19.75;;;;;23.66;55.40;101219.31;5012712;28;46378;-78
2022/07/22 00:40:13;;;;;;;;;20.75;19.75;;;;;23.61;55.74;101214.50;5009993;28;45838;-80
2022/07/22 00:42:38;;;;;;;;;19.75;18.00;;;;;23.51;55.75;101200.56;5010638;28;45954;-81
2022/07/22 00:45:04;;;;;;;;;20.00;17.75;;;;;23.54;55.77;101210.03;5010672;28;45782;-81
2022/07/22 00:47:30;;;;;;;;;20.25;18.25;;;;;23.46;55.51;101194.91;5015364;28;45909;-81
2022/07/22 00:49:55;;;;;;;;;21.25;21.00;;;;;23.42;56.09;101197.09;5008844;28;46102;-80
2022/07/22 00:52:22;;;;;;;;;19.25;18.50;;;;;23.35;56.11;101179.22;5010281;28;45955;-82
2022/07/22 00:54:47;;;;;;;;;19.25;17.50;;;;;23.34;55.99;101188.25;5010556;28;45729;-81
2022/07/22 00:57:13;;;;;;;;;22.75;21.00;;;;;23.35;56.09;101188.09;5010010;28;47401;-82
2022/07/22 00:59:38;;;;;;;;;19.75;18.75;;;;;23.28;55.77;101181.78;5009930;28;45957;-80
2022/07/22 01:02:04;;;;;;;;;18.50;18.25;;;;;23.26;55.73;101188.34;5009768;28;45625;-80
2022/07/22 01:04:29;;;;;;;;;19.50;18.00;;;;;23.25;56.28;101192.84;4993623;28;45855;-82
2022/07/22 01:06:55;;;;;;;;;18.00;17.50;;;;;23.21;55.78;101188.84;5009327;28;46062;-80
2022/07/22 01:09:20;;;;;;;;;19.50;17.00;;;;;23.17;56.72;101179.50;5010007;28;45816;-79
2022/07/22 01:11:46;;;;;;;;;21.25;19.75;;;;;23.19;56.47;101192.72;5005589;28;45945;-80
2022/07/22 01:14:11;;;;;;;;;19.75;18.00;;;;;23.11;55.95;101180.22;5009677;28;46019;-81
2022/07/22 01:16:36;;;;;;;;;16.75;16.00;;;;;23.15;56.41;101188.75;5009635;28;45821;-81
2022/07/22 01:19:02;;;;;;;;;21.50;17.50;;;;;23.12;56.33;101186.41;5009687;28;45760;-81
2022/07/22 01:21:28;;;;;;;;;20.75;20.00;;;;;23.10;57.03;101191.09;5008873;28;45661;-80
2022/07/22 01:23:53;;;;;;;;;16.75;15.00;;;;;23.01;56.82;101179.59;5010680;28;45829;-80
2022/07/22 01:26:19;;;;;;;;;19.00;17.25;;;;;23.04;56.92;101189.97;5009006;28;46196;-81
2022/07/22 01:28:44;;;;;;;;;21.50;19.75;;;;;22.98;56.71;101182.66;5011113;28;46498;-78
2022/07/22 01:31:10;;;;;;;;;17.50;15.50;;;;;22.97;56.76;101186.31;5012936;28;45765;-76
2022/07/22 01:33:36;;;;;;;;;19.50;17.00;;;;;22.99;57.04;101192.34;5013210;28;45771;-77
2022/07/22 01:36:05;;;;;;;;;17.50;17.00;;;;;22.96;56.44;101198.84;5013923;28;46452;-77
2022/07/22 01:38:30;;;;;;;;;15.75;15.50;;;;;22.91;56.49;101189.69;5000179;28;47962;-76
2022/07/22 01:40:56;;;;;;;;;18.75;16.00;;;;;22.87;56.97;101181.19;5009477;28;45600;-78
2022/07/22 01:43:21;;;;;;;;;18.25;17.50;;;;;22.85;57.20;101177.03;5011767;28;45987;-77
2022/07/22 01:45:48;;;;;;;;;18.25;17.00;;;;;22.84;56.79;101184.22;5013224;28;45841;-78
2022/07/22 01:48:14;;;;;;;;;15.75;15.50;;;;;22.81;57.11;101187.25;5012908;28;46217;-77
2022/07/22 01:50:41;;;;;;;;;16.50;15.75;;;;;22.79;56.41;101191.06;5012002;28;46742;-78
2022/07/22 01:53:07;;;;;;;;;16.25;16.00;;;;;22.73;57.24;101173.91;5012167;28;45754;-80
2022/07/22 01:55:33;;;;;;;;;21.25;17.00;;;;;22.74;57.18;101177.41;5012625;28;45955;-79
2022/07/22 01:57:58;;;;;;;;;18.25;15.00;;;;;22.73;57.36;101179.25;5012394;28;46150;-79
2022/07/22 02:00:24;;;;;;;;;19.50;14.75;;;;;22.64;56.84;101166.06;5011452;28;45854;-80
2022/07/22 02:02:49;;;;;;;;;15.00;15.00;;;;;22.67;57.01;101169.25;5012839;28;45767;-79
2022/07/22 02:05:14;;;;;;;;;16.75;15.00;;;;;22.67;57.44;101168.41;5012835;28;45942;-80
2022/07/22 02:07:40;;;;;;;;;21.50;16.25;;;;;22.62;57.73;101160.91;5012594;28;45668;-80
2022/07/22 02:10:06;;;;;;;;;17.75;16.00;;;;;22.63;57.19;101161.72;5012538;28;45747;-80
2022/07/22 02:12:32;;;;;;;;;17.00;16.25;;;;;22.54;57.65;101153.78;5014357;28;45697;-82
2022/07/22 02:14:57;;;;;;;;;17.75;15.75;;;;;22.55;57.74;101167.97;5012781;28;46530;-81
2022/07/22 02:17:23;;;;;;;;;20.50;15.75;;;;;22.54;57.61;101163.63;5012271;28;46129;-79
2022/07/22 02:19:49;;;;;;;;;19.00;17.50;;;;;22.41;57.27;101147.28;5011487;28;45710;-81
2022/07/22 02:22:14;;;;;;;;;17.00;16.25;;;;;22.41;57.10;101149.97;5013050;28;45611;-81
2022/07/22 02:24:40;;;;;;;;;16.75;14.75;;;;;22.40;57.46;101159.81;4993925;28;47078;-82
2022/07/22 02:27:05;;;;;;;;;18.25;17.25;;;;;22.40;57.23;101161.69;5006339;28;46072;-81
2022/07/22 02:29:31;;;;;;;;;14.50;14.25;;;;;22.43;57.76;101167.50;5011472;28;45662;-81
2022/07/22 02:31:57;;;;;;;;;15.00;14.00;;;;;22.35;57.89;101164.84;5012304;28;45900;-80
2022/07/22 02:34:22;;;;;;;;;16.00;15.75;;;;;22.37;58.16;101173.53;5012227;28;46528;-80
2022/07/22 02:36:48;;;;;;;;;16.50;16.00;;;;;22.31;58.08;101165.34;5011016;28;45892;-79
2022/07/22 02:39:13;;;;;;;;;15.25;14.25;;;;;22.31;57.91;101170.69;5012311;28;45658;-80
2022/07/22 02:41:39;;;;;;;;;14.75;14.25;;;;;22.28;57.52;101174.56;5011829;28;45823;-80
2022/07/22 02:44:04;;;;;;;;;15.00;14.50;;;;;22.23;57.83;101178.75;5011471;28;46525;-78
2022/07/22 02:46:30;;;;;;;;;17.00;15.75;;;;;22.21;58.27;101165.56;5012000;28;46478;-81
2022/07/22 02:48:55;;;;;;;;;20.50;17.25;;;;;22.17;57.75;101170.41;5010320;28;45825;-80
2022/07/22 02:51:21;;;;;;;;;16.25;15.75;;;;;22.18;58.07;101172.09;4994248;28;45967;-81
2022/07/22 02:53:47;;;;;;;;;16.25;16.25;;;;;22.13;58.36;101161.06;5011363;28;46273;-80
2022/07/22 02:56:12;;;;;;;;;17.75;17.00;;;;;22.13;57.88;101162.91;5011923;28;46744;-80
2022/07/22 02:58:40;;;;;;;;;14.50;12.25;;;;;22.02;58.20;101148.09;5011523;28;45770;-81
2022/07/22 03:01:06;;;;;;;;;14.25;13.00;;;;;22.10;58.39;101164.09;5006149;28;45793;-81
2022/07/22 03:03:31;;;;;;;;;14.00;13.50;;;;;22.05;57.85;101154.91;5010838;28;46728;-81
2022/07/22 03:05:57;;;;;;;;;13.50;12.00;;;;;22.03;57.76;101149.75;4999848;28;46371;-80
2022/07/22 03:08:22;;;;;;;;;14.50;14.25;;;;;22.03;58.41;101156.91;5011571;28;46107;-81
2022/07/22 03:10:48;;;;;;;;;16.00;15.00;;;;;22.01;58.26;101162.44;5011480;28;46728;-81
2022/07/22 03:13:13;;;;;;;;;16.00;14.50;;;;;21.99;58.24;101153.75;5012906;28;46551;-77
2022/07/22 03:15:39;;;;;;;;;17.50;16.00;;;;;21.98;58.19;101154.75;5011682;28;45723;-77
2022/07/22 03:18:04;;;;;;;;;16.25;15.25;;;;;21.94;58.37;101145.44;5011148;28;45859;-79
2022/07/22 03:20:30;;;;;;;;;15.25;13.25;;;;;21.95;58.39;101146.25;5011688;28;45596;-78
2022/07/22 03:22:55;;;;;;;;;16.25;14.25;;;;;21.95;58.09;101152.44;5011796;28;46259;-79
2022/07/22 03:25:20;;;;;;;;;16.00;14.75;;;;;21.90;58.12;101153.91;5011633;28;46267;-77
2022/07/22 03:27:46;;;;;;;;;15.75;15.00;;;;;21.80;58.27;101135.44;5011406;28;45768;-81
2022/07/22 03:30:12;;;;;;;;;14.75;14.00;;;;;21.88;58.40;101151.41;5010602;28;46051;-81
2022/07/22 03:32:37;;;;;;;;;14.25;13.25;;;;;21.85;58.60;101148.25;5011733;28;46774;-81
2022/07/22 03:35:03;;;;;;;;;10.25;9.00;;;;;21.84;58.65;101147.41;5011280;28;45645;-81
2022/07/22 03:37:28;;;;;;;;;16.50;14.25;;;;;21.76;58.31;101140.25;5013015;28;45958;-80
2022/07/22 03:39:54;;;;;;;;;14.75;14.00;;;;;21.80;58.85;101142.59;4996719;28;45994;-81
2022/07/22 03:42:19;;;;;;;;;14.00;13.75;;;;;21.76;58.98;101148.25;5010818;28;46322;-80
2022/07/22 03:44:46;;;;;;;;;14.50;14.00;;;;;21.75;58.65;101145.78;5011795;28;45700;-81
2022/07/22 03:47:12;;;;;;;;;17.75;15.75;;;;;21.64;58.65;101132.78;5016650;28;46268;-80
2022/07/22 03:49:37;;;;;;;;;18.25;16.25;;;;;21.68;58.81;101147.44;5010842;28;45705;-81
2022/07/22 03:52:03;;;;;;;;;15.25;14.00;;;;;21.59;58.80;101140.44;5011011;28;45667;-83
2022/07/22 03:54:28;;;;;;;;;16.75;15.25;;;;;21.55;58.99;101136.44;5011454;28;45763;-81
2022/07/22 03:56:53;;;;;;;;;15.25;13.25;;;;;21.62;58.84;101154.28;5010753;28;45698;-81
2022/07/22 03:59:19;;;;;;;;;17.00;16.00;;;;;21.53;59.11;101138.44;5011346;28;45863;-80
2022/07/22 04:01:44;;;;;;;;;15.50;14.75;;;;;21.51;58.81;101135.94;5011916;28;46352;-80
2022/07/22 04:04:09;;;;;;;;;14.75;14.25;;;;;21.51;58.91;101145.75;5010946;28;46495;-82
2022/07/22 04:06:35;;;;;;;;;15.25;14.00;;;;;21.48;58.96;101146.13;5011161;28;45792;-81
2022/07/22 04:09:01;;;;;;;;;15.50;13.75;;;;;21.48;59.34;101151.44;5011881;28;45910;-81
2022/07/22 04:11:26;;;;;;;;;17.50;15.25;;;;;21.44;59.24;101152.75;5010595;28;46935;-81
2022/07/22 04:13:52;;;;;;;;;14.75;14.25;;;;;21.44;59.20;101152.75;5011589;28;46364;-83
2022/07/22 04:16:18;;;;;;;;;16.50;15.25;;;;;21.34;59.17;101145.75;5011998;28;45764;-79
2022/07/22 04:18:44;;;;;;;;;16.00;14.75;;;;;21.41;58.66;101153.94;5011126;28;45882;-80
2022/07/22 04:21:10;;;;;;;;;13.75;12.00;;;;;21.42;58.78;101144.94;5011733;28;45714;-81
2022/07/22 04:23:36;;;;;;;;;17.00;14.00;;;;;21.43;59.38;101149.25;5010830;28;46120;-80
2022/07/22 04:26:01;;;;;;;;;16.75;14.50;;;;;21.37;59.12;101128.63;5010498;28;45766;-82
2022/07/22 04:28:27;;;;;;;;;15.50;15.00;;;;;21.37;58.92;101131.28;5010393;28;45748;-81
2022/07/22 04:30:52;;;;;;;;;12.75;12.50;;;;;21.44;59.27;101142.91;5010900;28;45666;-81
2022/07/22 04:33:17;;;;;;;;;15.25;14.50;;;;;21.44;59.18;101140.25;4993939;28;46054;-81
2022/07/22 04:35:43;;;;;;;;;15.00;14.25;;;;;21.41;59.19;101139.78;5012978;28;46541;-81
2022/07/22 04:38:09;;;;;;;;;15.25;14.25;;;;;21.38;59.29;101126.78;5012561;28;45555;-80
2022/07/22 04:40:36;;;;;;;;;16.25;15.00;;;;;21.44;58.94;101134.09;5010630;28;46030;-79
2022/07/22 04:43:01;;;;;;;;;17.00;16.50;;;;;21.37;58.95;101123.28;5010393;28;46433;-81
2022/07/22 04:45:26;;;;;;;;;14.25;13.50;;;;;21.38;59.53;101126.78;5009779;28;47008;-82
2022/07/22 04:47:52;;;;;;;;;15.75;14.75;;;;;21.39;58.91;101131.09;5010797;28;45819;-81
2022/07/22 04:50:17;;;;;;;;;15.25;12.50;;;;;21.31;58.95;101118.59;5010619;28;46255;-80
2022/07/22 04:52:43;;;;;;;;;15.75;15.00;;;;;21.33;58.90;101130.75;5010782;28;45808;-80
2022/07/22 04:55:08;;;;;;;;;13.75;13.00;;;;;21.34;59.05;101131.59;5010582;28;45854;-81
2022/07/22 04:57:34;;;;;;;;;16.75;16.75;;;;;21.31;59.58;101119.44;5011713;28;45660;-81
2022/07/22 04:59:59;;;;;;;;;15.00;12.50;;;;;21.33;59.19;101121.91;5013897;28;46713;-81
2022/07/22 05:02:25;;;;;;;;;16.25;14.25;;;;;21.34;59.28;101118.25;5012862;28;46128;-80
2022/07/22 05:04:50;;;;;;;;;14.50;14.50;;;;;21.33;59.35;101111.25;5015532;28;45649;-81
2022/07/22 05:07:15;;;;;;;;;14.75;12.75;;;;;21.29;59.50;101113.44;5016972;28;45936;-80
2022/07/22 05:09:41;;;;;;;;;13.75;12.75;;;;;21.31;59.31;101121.28;5018274;28;45698;-80
2022/07/22 05:12:07;;;;;;;;;14.50;13.00;;;;;21.30;59.72;101120.44;5017319;28;45933;-81
2022/07/22 05:14:32;;;;;;;;;15.00;14.00;;;;;21.26;59.34;101115.59;5018166;28;46596;-81
2022/07/22 05:16:58;;;;;;;;;14.00;13.75;;;;;21.25;59.49;101108.59;5015806;28;45759;-78
2022/07/22 05:19:23;;;;;;;;;14.50;14.25;;;;;21.26;59.42;101112.94;5020657;28;45611;-79
2022/07/22 05:25:24;;;;;;;;;16.00;14.00;;;;;21.34;59.32;101121.75;5021146;28;45563;-79
2022/07/22 05:27:51;;;;;;;;;15.00;14.75;;;;;21.31;59.57;101111.44;5021327;28;45452;-81
2022/07/22 05:30:17;;;;;;;;;16.25;14.75;;;;;21.34;59.10;101102.28;5021256;28;45672;-81
2022/07/22 05:32:42;;;;;;;;;14.75;13.25;;;;;21.37;58.84;101107.28;5021404;28;45535;-80
2022/07/22 05:35:08;;;;;;;;;16.00;11.75;;;;;21.35;59.18;101109.28;5019035;28;45712;-79
2022/07/22 05:40:55;;;;;;;;;16.75;15.25;;;;;21.35;59.09;101107.44;5020360;28;45486;-79
2022/07/22 05:43:20;;;;;;;;;16.25;15.00;;;;;21.36;59.42;101118.94;5019868;28;45583;-80
2022/07/22 05:45:46;;;;;;;;;15.50;14.25;;;;;21.37;59.00;101112.63;5021068;28;45538;-80
2022/07/22 05:48:11;;;;;;;;;19.25;17.25;;;;;21.39;59.12;101112.44;5020690;28;45501;-81
2022/07/22 05:50:37;;;;;;;;;14.50;14.25;;;;;21.37;59.18;101101.13;5021525;28;45662;-84
2022/07/22 05:56:51;;;;;;;;;19.25;17.75;;;;;21.49;59.02;101110.41;5022942;28;45605;-85
2022/07/22 05:59:17;;;;;;;;;16.25;16.25;;;;;21.44;58.96;101100.25;5022289;28;45750;-84
2022/07/22 06:01:42;;;;;;;;;16.75;16.00;;;;;21.48;58.90;101095.44;5027598;28;45503;-85
2022/07/22 06:04:07;;;;;;;;;20.00;16.00;;;;;21.53;59.26;101098.44;5024312;28;46500;-85
2022/07/22 06:06:33;;;;;;;;;13.75;13.75;;;;;21.49;58.88;101086.44;5029597;28;45452;-81
2022/07/22 06:08:58;;;;;;;;;15.00;13.50;;;;;21.48;58.55;101088.28;5006628;28;45851;-86
2022/07/22 06:11:23;;;;;;;;;16.75;16.25;;;;;21.55;58.87;101093.75;5018704;28;45632;-85
2022/07/22 06:13:49;;;;;;;;;20.50;15.50;;;;;21.56;58.96;101098.09;5000307;28;47143;-87
2022/07/22 06:16:14;;;;;;;;;14.25;12.50;;;;;21.62;58.85;101116.09;5021418;28;45649;-88
2022/07/22 06:18:40;;;;;;;;;17.50;16.00;;;;;21.55;58.62;101107.94;5020052;28;45871;-85
2022/07/22 06:21:07;;;;;;;;;16.75;15.25;;;;;21.63;58.43;101118.59;5003134;28;46943;-87
2022/07/22 06:26:54;;;;;;;;;13.25;13.25;;;;;21.69;58.38;101106.44;5015728;28;45468;-81
2022/07/22 06:29:20;;;;;;;;;21.00;17.25;;;;;21.67;58.59;101101.25;5018931;28;45466;-86
2022/07/22 06:31:45;;;;;;;;;19.00;16.00;;;;;21.63;58.63;101094.59;5022241;28;45610;-87
2022/07/22 06:34:11;;;;;;;;;11.25;11.00;;;;;21.72;58.82;101106.91;5025084;28;45636;-88
2022/07/22 06:36:36;;;;;;;;;18.25;16.50;;;;;21.73;58.76;101099.75;5007083;28;45568;-90
2022/07/22 06:39:02;;;;;;;;;17.75;15.75;;;;;21.77;58.41;101109.91;5033657;28;45713;-85
2022/07/22 06:41:27;;;;;;;;;17.25;16.00;;;;;21.76;58.27;101105.56;5031567;28;45674;-84
2022/07/22 06:43:53;;;;;;;;;18.00;16.00;;;;;21.73;58.52;101100.59;5020069;28;46207;-87
2022/07/22 06:46:18;;;;;;;;;15.50;14.25;;;;;21.83;58.41;101108.41;5018157;28;45621;-83
2022/07/22 06:48:43;;;;;;;;;17.25;16.25;;;;;21.82;58.34;101101.38;5016676;28;45729;-84
2022/07/22 06:51:09;;;;;;;;;15.00;14.50;;;;;21.88;58.44;101106.03;5016602;28;45614;-84
2022/07/22 06:56:57;;;;;;;;;17.25;16.00;;;;;21.94;57.95;101120.53;5015963;28;45824;-85
2022/07/22 06:59:23;;;;;;;;;19.75;17.75;;;;;22.03;58.30;101139.06;4998235;28;45886;-83
2022/07/22 07:01:49;;;;;;;;;21.75;16.75;;;;;22.01;58.17;101116.22;5015733;28;46678;-81
2022/07/22 07:04:14;;;;;;;;;15.00;14.75;;;;;22.08;57.94;101128.72;5016051;28;46060;-83
2022/07/22 07:06:40;;;;;;;;;16.25;15.50;;;;;22.08;58.16;101123.38;5002238;28;45652;-87
2022/07/22 07:12:27;;;;;;;;;14.50;14.00;;;;;22.23;58.30;101115.50;5015331;28;46041;-84
2022/07/22 07:14:53;;;;;;;;;17.75;17.00;;;;;22.24;57.71;101105.66;5015292;28;45604;-83
2022/07/22 07:17:18;;;;;;;;;17.25;17.25;;;;;22.35;57.94;101105.28;5015170;28;45619;-82
2022/07/22 07:19:43;;;;;;;;;18.50;16.50;;;;;22.33;57.21;101084.09;5015404;28;45606;-83
2022/07/22 07:22:09;;;;;;;;;15.75;14.00;;;;;22.37;57.64;101081.91;5014990;28;45980;-84
2022/07/22 07:24:34;;;;;;;;;20.00;17.75;;;;;22.43;57.43;101087.38;5014811;28;45685;-83
2022/07/22 07:26:59;;;;;;;;;17.25;16.00;;;;;22.53;56.98;101106.69;5014952;28;45937;-84
2022/07/22 07:29:25;;;;;;;;;19.25;16.50;;;;;22.60;56.94;101094.31;5014800;28;45700;-83
2022/07/22 07:31:50;;;;;;;;;19.75;16.25;;;;;22.63;57.51;101100.28;4996753;28;47610;-83
2022/07/22 07:34:16;;;;;;;;;18.50;17.00;;;;;22.68;56.87;101093.41;4997258;28;48000;-85
2022/07/22 07:36:41;;;;;;;;;16.75;15.75;;;;;22.76;56.88;101096.09;5013911;28;45817;-85
2022/07/22 07:42:28;;;;;;;;;20.50;17.50;;;;;22.84;56.62;101103.19;5015466;28;45612;-86
2022/07/22 07:44:54;;;;;;;;;18.00;17.50;;;;;22.88;56.71;101101.88;5014922;28;45653;-86
2022/07/22 07:47:20;;;;;;;;;19.00;18.00;;;;;22.95;56.34;101108.16;4996756;28;45639;-84
2022/07/22 07:49:47;;;;;;;;;18.25;16.50;;;;;22.92;56.75;101100.50;5014831;28;45636;-84
2022/07/22 07:52:13;;;;;;;;;17.25;15.75;;;;;23.03;56.33;101110.78;5014376;28;45690;-84
2022/07/22 07:54:39;;;;;;;;;17.50;16.75;;;;;23.08;56.11;101119.09;4996400;28;48086;-86
2022/07/22 07:57:08;;;;;;;;;14.75;13.50;;;;;23.08;55.99;101116.44;5014376;28;45606;-79
2022/07/22 07:59:34;;;;;;;;;18.25;17.25;;;;;23.12;56.27;101115.06;5014396;28;45717;-78
2022/07/22 08:01:59;;;;;;;;;17.75;15.50;;;;;23.20;55.59;101104.31;5014911;28;46629;-83
2022/07/22 08:04:25;;;;;;;;;18.00;16.50;;;;;23.27;56.14;101109.75;5014912;28;45732;-83
2022/07/22 08:06:50;;;;;;;;;18.00;16.50;;;;;23.32;56.14;101097.50;5014641;28;45762;-82
2022/07/22 08:12:37;;;;;;;;;22.50;19.00;;;;;23.58;54.96;101112.38;5014004;28;45734;-84
2022/07/22 08:15:03;;;;;;;;;19.75;17.25;;;;;23.59;55.42;101092.66;4996441;28;46850;-83
2022/07/22 08:17:28;;;;;;;;;18.00;16.75;;;;;23.65;55.17;101091.91;4997085;28;45844;-86
2022/07/22 08:19:54;;;;;;;;;18.25;15.75;;;;;23.70;55.51;101086.81;5014816;28;45636;-85
2022/07/22 08:22:19;;;;;;;;;17.25;16.50;;;;;23.78;55.11;101084.91;4996320;28;46890;-83
2022/07/22 08:28:06;;;;;;;;;20.25;17.75;;;;;23.99;54.63;101088.69;5015584;28;45667;-85
2022/07/22 08:30:32;;;;;;;;;16.00;15.00;;;;;24.08;54.47;101092.94;5016951;28;45922;-86
2022/07/22 08:32:57;;;;;;;;;18.75;17.00;;;;;24.09;53.97;101084.72;5016615;28;45546;-83
2022/07/22 08:35:23;;;;;;;;;18.25;17.50;;;;;24.14;53.95;101093.03;5017131;28;46446;-88
2022/07/22 08:37:48;;;;;;;;;18.75;16.50;;;;;24.20;53.98;101096.84;4999320;28;46257;-83
2022/07/22 08:40:16;;;;;;;;;19.50;15.75;;;;;24.18;53.84;101093.56;5016571;28;45915;-83
2022/07/22 08:42:44;;;;;;;;;20.00;18.25;;;;;24.30;53.77;101096.56;5015433;28;45544;-83
2022/07/22 08:45:11;;;;;;;;;22.50;17.00;;;;;24.31;53.36;101083.00;5015084;28;46006;-83
2022/07/22 08:47:37;;;;;;;;;19.50;17.50;;;;;24.38;53.67;101080.41;4998721;28;45715;-84
2022/07/22 08:50:03;;;;;;;;;21.25;19.75;;;;;24.41;53.59;101071.97;5016148;28;45562;-84
2022/07/22 08:52:29;;;;;;;;;19.00;16.00;;;;;24.44;53.20;101063.59;4997940;28;46746;-85
2022/07/22 08:58:17;;;;;;;;;19.00;18.00;;;;;24.52;53.50;101040.19;5015550;28;45471;-86
2022/07/22 09:00:42;;;;;;;;;19.75;18.50;;;;;24.56;53.41;101017.34;5015891;28;45746;-86
2022/07/22 09:03:23;;;;;;;;;16.75;14.75;;;;;24.64;53.27;100998.47;5014500;28;46252;-87
2022/07/22 09:05:50;;;;;;;;;18.75;16.75;;;;;24.71;53.25;100989.66;4997324;28;47503;-86
2022/07/22 09:08:15;;;;;;;;;19.25;17.25;;;;;24.77;53.22;100976.34;4998163;28;45822;-86
2022/07/22 09:10:47;;;;;;;;;21.75;18.50;;;;;24.85;53.35;101000.31;4999326;28;45861;-88
2022/07/22 09:13:14;;;;;;;;;21.25;19.50;;;;;24.92;52.89;101020.00;4999633;28;47036;-85
2022/07/22 09:15:52;;;;;;;;;17.50;17.00;;;;;25.05;52.65;101038.88;5001727;28;48212;-87
2022/07/22 09:18:18;;;;;;;;;26.75;24.25;;;;;25.15;52.75;101041.25;5019745;28;45724;-88
2022/07/22 09:20:44;;;;;;;;;21.00;19.50;;;;;25.22;52.82;101050.16;5017611;28;45781;-85
2022/07/22 09:23:13;;;;;;;;;18.50;16.00;;;;;25.36;52.36;101061.84;5014459;28;46667;-85
2022/07/22 09:25:40;;;;;;;;;17.50;16.25;;;;;25.42;52.44;101063.78;5015647;28;45886;-86
2022/07/22 09:28:05;;;;;;;;;19.00;17.00;;;;;25.57;52.21;101085.16;5015173;28;45795;-85
2022/07/22 09:30:33;;;;;;;;;18.00;16.00;;;;;25.61;51.90;101073.00;4998737;28;45591;-85
2022/07/22 09:32:58;;;;;;;;;14.50;14.50;;;;;25.73;51.70;101074.97;5015954;28;45771;-84
2022/07/22 09:35:27;;;;;;;;;20.50;18.75;;;;;25.80;51.32;101078.50;5015001;28;45766;-85
2022/07/22 09:38:06;;;;;;;;;17.25;16.00;;;;;25.90;51.48;101065.56;5013441;28;45740;-83
2022/07/22 09:43:53;;;;;;;;;17.25;16.00;;;;;26.03;51.13;101039.78;5014719;28;45953;-84
2022/07/22 09:46:35;;;;;;;;;18.25;17.00;;;;;26.06;51.20;101047.47;5015107;28;46287;-87
2022/07/22 09:49:00;;;;;;;;;18.75;17.00;;;;;26.15;50.96;101049.78;5014506;28;45549;-85
2022/07/22 09:51:26;;;;;;;;;19.00;16.75;;;;;26.16;50.77;101054.13;4998930;28;45888;-86
2022/07/22 09:53:52;;;;;;;;;18.50;17.25;;;;;26.20;50.93;101044.63;4998741;28;46540;-87
2022/07/22 09:56:18;;;;;;;;;19.50;17.75;;;;;26.31;50.75;101062.06;4999465;28;46947;-89
2022/07/22 09:58:45;;;;;;;;;20.25;17.75;;;;;26.32;50.86;101053.00;5019635;28;45721;-89
2022/07/22 10:01:12;;;;;;;;;18.75;16.50;;;;;26.36;50.44;101050.72;5016927;28;45705;-88
2022/07/22 10:03:40;;;;;;;;;17.00;17.00;;;;;26.47;50.29;101058.19;4999059;28;47323;-85
2022/07/22 10:06:06;;;;;;;;;18.25;18.00;;;;;26.42;50.11;101036.47;5018345;28;46152;-87
2022/07/22 10:08:33;;;;;;;;;19.00;18.00;;;;;26.53;50.05;101054.72;5018263;28;45678;-88
2022/07/22 10:11:01;;;;;;;;;19.00;18.00;;;;;26.53;49.70;101047.47;5000662;28;45467;-83
2022/07/22 10:13:27;;;;;;;;;20.00;18.25;;;;;26.53;49.95;101038.59;5016899;28;47830;-83
2022/07/22 10:15:53;;;;;;;;;18.75;17.00;;;;;26.56;49.58;101051.63;5017829;28;45789;-84
2022/07/22 10:18:19;;;;;;;;;27.00;22.50;;;;;26.49;49.29;101035.47;5021678;28;45554;-82
2022/07/22 10:20:45;;;;;;;;;18.75;17.50;;;;;26.49;49.36;101040.84;5021133;28;45716;-82
2022/07/22 10:23:12;;;;;;;;;18.50;18.00;;;;;26.43;49.18;101048.88;5001785;28;47520;-82
2022/07/22 10:29:26;;;;;;;;;21.75;19.50;;;;;26.37;49.38;101026.34;5020897;28;45838;-85
2022/07/22 10:32:15;;;;;;;;;18.75;18.75;;;;;26.29;49.72;101021.13;5023359;28;45634;-80
2022/07/22 10:34:42;;;;;;;;;19.25;18.25;;;;;26.22;49.36;101017.56;5012438;28;45692;-83
2022/07/22 10:37:44;;;;;;;;;20.75;19.25;;;;;26.14;49.41;101023.09;5005906;28;46434;-83
2022/07/22 10:40:11;;;;;;;;;22.75;21.00;;;;;26.06;49.99;101009.88;5023808;28;45690;-85
2022/07/22 10:43:01;;;;;;;;;21.50;20.00;;;;;25.98;50.04;100988.53;5023640;28;45659;-82
2022/07/22 10:45:28;;;;;;;;;25.00;22.50;;;;;25.91;50.65;100959.78;5020924;28;46676;-83
2022/07/22 10:47:58;;;;;;;;;22.00;19.50;;;;;25.87;51.08;100931.69;5021731;28;46243;-85
2022/07/22 10:50:35;;;;;;;;;23.25;21.50;;;;;25.80;52.06;100921.97;5022921;28;45607;-82
2022/07/22 10:53:01;;;;;;;;;21.00;20.00;;;;;25.70;52.23;100916.13;5021553;28;45469;-80
2022/07/22 10:55:27;;;;;;;;;24.00;22.50;;;;;25.66;52.67;100929.13;5021138;28;45617;-81
2022/07/22 10:57:52;;;;;;;;;24.25;22.75;;;;;25.61;52.84;100930.75;5021278;28;45799;-81
2022/07/22 11:00:18;;;;;;;;;23.00;23.00;;;;;25.58;52.91;100923.94;5016473;28;46179;-83
2022/07/22 11:02:44;;;;;;;;;19.75;18.25;;;;;25.57;53.10;100910.72;5015044;28;45575;-81
2022/07/22 11:05:09;;;;;;;;;22.75;21.25;;;;;25.56;52.96;100912.56;5014753;28;47080;-80
2022/07/22 11:07:46;;;;;;;;;23.25;23.00;;;;;25.49;53.11;100914.34;5015198;28;46355;-81
2022/07/22 11:10:17;;;;;;;;;21.25;20.50;;;;;25.59;52.75;100909.47;5015385;28;45706;-84
2022/07/22 11:12:43;;;;;;;;;21.50;19.75;;;;;25.57;52.82;100892.75;4998194;28;45848;-83
2022/07/22 11:15:10;;;;;;;;;23.50;22.25;;;;;25.59;52.70;100879.94;4996312;28;47706;-82
2022/07/22 11:17:36;;;;;;;;;23.00;22.00;;;;;25.56;52.89;100868.78;5017644;28;46264;-82
2022/07/22 11:20:07;;;;;;;;;22.25;21.75;;;;;25.57;52.93;100873.97;4999233;28;45736;-84
2022/07/22 11:22:33;;;;;;;;;21.00;20.25;;;;;25.57;52.76;100876.66;5018929;28;45801;-83
2022/07/22 11:25:04;;;;;;;;;22.50;20.75;;;;;25.55;53.40;100869.78;5020380;28;45606;-82
2022/07/22 11:27:30;;;;;;;;;24.50;21.75;;;;;25.52;53.38;100868.34;5015471;28;45914;-83
2022/07/22 11:29:57;;;;;;;;;23.00;20.25;;;;;25.53;53.30;100855.75;5016083;28;45500;-84
2022/07/22 11:32:25;;;;;;;;;24.75;21.00;;;;;25.54;53.47;100846.66;5016034;28;45598;-84
2022/07/22 11:34:50;;;;;;;;;25.25;20.75;;;;;25.50;53.60;100854.28;5016025;28;46707;-83
2022/07/22 11:37:24;;;;;;;;;22.00;20.25;;;;;25.52;53.57;100859.47;4997191;28;47407;-82
2022/07/22 11:39:51;;;;;;;;;24.25;21.00;;;;;25.55;53.18;100872.47;5015104;28;45770;-84
2022/07/22 11:42:16;;;;;;;;;22.00;20.75;;;;;25.61;53.66;100893.19;5015302;28;45835;-80
2022/07/22 11:44:42;;;;;;;;;26.00;22.25;;;;;25.72;53.56;100889.91;5016470;28;46608;-88
2022/07/22 11:47:09;;;;;;;;;25.75;23.25;;;;;25.72;53.13;100888.06;5001512;28;48024;-89